createdAt,value
2023-10-18T00:01:56.013Z,98616.52
2023-10-18T00:04:22.858Z,98616.90
2023-10-18T00:06:50.179Z,98613.02
2023-10-18T00:09:16.913Z,98608.59
2023-10-18T00:11:43.556Z,98605.17
2023-10-18T00:14:10.610Z,98605.14
2023-10-18T00:16:37.382Z,98603.39
2023-10-18T00:19:04.383Z,98602.17
2023-10-18T00:21:31.755Z,98600.81
2023-10-18T00:23:58.534Z,98602.52
2023-10-18T00:26:25.505Z,98589.86
2023-10-18T00:28:52.542Z,98583.56
2023-10-18T00:31:19.801Z,98581.35
2023-10-18T00:33:46.651Z,98586.17
2023-10-18T00:36:15.004Z,98587.08
2023-10-18T00:38:41.906Z,98593.41
2023-10-18T00:41:09.250Z,98589.86
2023-10-18T00:43:36.083Z,98586.64
2023-10-18T00:46:03.284Z,98586.17
2023-10-18T00:48:30.343Z,98578.71
2023-10-18T00:50:59.824Z,98578.39
2023-10-18T00:53:28.645Z,98575.70
2023-10-18T00:55:56.731Z,98574.05
2023-10-18T00:58:25.195Z,98578.16
2023-10-18T01:00:53.493Z,98581.58
2023-10-18T01:03:20.724Z,98583.44
2023-10-18T01:06:01.357Z,98581.05
2023-10-18T01:08:29.889Z,98576.95
2023-10-18T01:10:58.102Z,98573.22
2023-10-18T01:13:24.781Z,98572.88
2023-10-18T01:15:51.686Z,98574.27
2023-10-18T01:18:18.690Z,98568.66
2023-10-18T01:20:45.435Z,98562.85
2023-10-18T01:23:12.092Z,98563.20
2023-10-18T01:25:38.836Z,98566.08
2023-10-18T01:28:05.719Z,98563.83
2023-10-18T01:30:33.319Z,98564.72
2023-10-18T01:33:01.956Z,98560.66
2023-10-18T01:35:28.901Z,98556.74
2023-10-18T01:37:55.585Z,98555.35
2023-10-18T01:40:22.501Z,98556.38
2023-10-18T01:42:53.475Z,98555.67
2023-10-18T01:45:20.200Z,98551.42
2023-10-18T01:47:53.446Z,98550.58
2023-10-18T01:50:21.942Z,98552.79
2023-10-18T01:52:48.741Z,98555.20
2023-10-18T01:55:15.502Z,98557.94
2023-10-18T01:57:43.092Z,98559.34
2023-10-18T02:00:10.522Z,98560.21
2023-10-18T02:02:37.219Z,98562.13
2023-10-18T02:05:05.005Z,98558.39
2023-10-18T02:07:31.777Z,98559.44
2023-10-18T02:09:58.641Z,98557.41
2023-10-18T02:12:26.201Z,98556.39
2023-10-18T02:14:53.258Z,98554.84
2023-10-18T02:17:20.819Z,98558.07
2023-10-18T02:19:48.902Z,98562.52
2023-10-18T02:22:16.700Z,98566.80
2023-10-18T02:24:44.065Z,98569.39
2023-10-18T02:27:11.289Z,98563.45
2023-10-18T02:29:38.341Z,98556.82
2023-10-18T02:32:05.209Z,98562.15
2023-10-18T02:34:32.075Z,98562.36
2023-10-18T02:36:59.128Z,98563.45
2023-10-18T02:39:26.047Z,98561.21
2023-10-18T02:41:53.564Z,98561.89
2023-10-18T02:44:20.350Z,98562.88
2023-10-18T02:46:47.098Z,98561.66
2023-10-18T02:49:14.007Z,98563.34
2023-10-18T02:51:40.839Z,98564.87
2023-10-18T02:54:07.762Z,98560.95
2023-10-18T02:56:35.434Z,98563.00
2023-10-18T02:59:02.183Z,98557.55
2023-10-18T03:01:28.960Z,98553.80
2023-10-18T03:03:56.063Z,98554.88
2023-10-18T03:06:23.443Z,98557.96
2023-10-18T03:08:50.094Z,98558.48
2023-10-18T03:11:17.457Z,98551.86
2023-10-18T03:13:44.418Z,98554.42
2023-10-18T03:16:11.417Z,98553.59
2023-10-18T03:18:38.495Z,98555.66
2023-10-18T03:21:05.515Z,98555.34
2023-10-18T03:23:32.217Z,98555.34
2023-10-18T03:26:02.961Z,98551.77
2023-10-18T03:28:29.916Z,98552.28
2023-10-18T03:30:56.638Z,98548.56
2023-10-18T03:33:23.517Z,98547.39
2023-10-18T03:36:10.734Z,98550.98
2023-10-18T03:38:41.418Z,98547.25
2023-10-18T03:41:08.233Z,98548.80
2023-10-18T03:43:35.186Z,98550.85
2023-10-18T03:46:06.129Z,98549.34
2023-10-18T03:48:32.871Z,98549.52
2023-10-18T03:50:59.615Z,98544.61
2023-10-18T03:53:26.668Z,98543.75
2023-10-18T03:55:53.314Z,98535.59
2023-10-18T03:58:20.087Z,98531.52
2023-10-18T04:00:46.804Z,98529.52
2023-10-18T04:03:14.281Z,98531.41
2023-10-18T04:05:42.244Z,98534.66
2023-10-18T04:08:13.913Z,98535.86
2023-10-18T04:10:41.740Z,98528.73
2023-10-18T04:13:09.012Z,98523.60
2023-10-18T04:15:35.685Z,98520.38
2023-10-18T04:18:02.476Z,98516.81
2023-10-18T04:20:29.616Z,98516.65
2023-10-18T04:22:56.335Z,98513.08
2023-10-18T04:25:23.217Z,98514.95
2023-10-18T04:27:50.050Z,98513.59
2023-10-18T04:30:16.873Z,98513.59
2023-10-18T04:32:44.058Z,98512.71
2023-10-18T04:35:10.892Z,98511.35
2023-10-18T04:37:37.741Z,98507.60
2023-10-18T04:40:05.016Z,98508.63
2023-10-18T04:42:31.738Z,98511.52
2023-10-18T04:44:58.450Z,98510.16
2023-10-18T04:47:25.313Z,98514.95
2023-10-18T04:49:52.077Z,98518.86
2023-10-18T04:52:18.995Z,98520.39
2023-10-18T04:54:45.803Z,98520.38
2023-10-18T04:57:12.872Z,98523.98
2023-10-18T04:59:39.984Z,98530.09
2023-10-18T05:02:06.739Z,98537.06
2023-10-18T05:04:34.401Z,98543.01
2023-10-18T05:07:06.164Z,98539.27
2023-10-18T05:09:34.449Z,98541.65
2023-10-18T05:12:03.495Z,98545.73
2023-10-18T05:14:39.090Z,98545.71
2023-10-18T05:17:14.591Z,98553.69
2023-10-18T05:19:41.521Z,98554.04
2023-10-18T05:22:10.009Z,98546.02
2023-10-18T05:24:40.031Z,98544.46
2023-10-18T05:27:06.890Z,98544.30
2023-10-18T05:29:33.843Z,98545.63
2023-10-18T05:32:00.493Z,98544.56
2023-10-18T05:34:27.269Z,98542.65
2023-10-18T05:36:54.510Z,98540.74
2023-10-18T05:39:21.332Z,98542.33
2023-10-18T05:41:48.349Z,98539.39
2023-10-18T05:44:15.147Z,98537.73
2023-10-18T05:46:42.331Z,98542.50
2023-10-18T05:49:09.665Z,98542.50
2023-10-18T05:51:39.021Z,98541.40
2023-10-18T05:54:07.059Z,98541.75
2023-10-18T05:56:34.530Z,98543.79
2023-10-18T05:59:03.628Z,98541.77
2023-10-18T06:01:30.359Z,98536.88
2023-10-18T06:03:57.275Z,98532.75
2023-10-18T06:06:24.133Z,98536.09
2023-10-18T06:08:50.779Z,98539.20
2023-10-18T06:11:17.529Z,98541.11
2023-10-18T06:13:46.732Z,98537.80
2023-10-18T06:16:13.598Z,98536.55
2023-10-18T06:18:40.463Z,98538.58
2023-10-18T06:21:08.217Z,98538.37
2023-10-18T06:23:35.271Z,98533.48
2023-10-18T06:26:02.114Z,98527.12
2023-10-18T06:28:28.835Z,98523.10
2023-10-18T06:30:56.432Z,98524.49
2023-10-18T06:33:23.902Z,98525.06
2023-10-18T06:35:51.473Z,98523.54
2023-10-18T06:38:25.755Z,98519.08
2023-10-18T06:41:04.439Z,98514.89
2023-10-18T06:43:33.881Z,98518.19
2023-10-18T06:46:00.925Z,98516.52
2023-10-18T06:48:27.612Z,98514.16
2023-10-18T06:50:54.416Z,98510.30
2023-10-18T06:53:21.570Z,98505.98
2023-10-18T06:55:48.363Z,98509.05
2023-10-18T06:58:15.287Z,98509.18
2023-10-18T07:00:43.333Z,98510.13
2023-10-18T07:03:11.399Z,98508.64
2023-10-18T07:05:38.057Z,98504.16
2023-10-18T07:08:05.817Z,98501.19
2023-10-18T07:10:32.347Z,98503.26
2023-10-18T07:12:59.051Z,98502.41
2023-10-18T07:15:25.786Z,98507.20
2023-10-18T07:17:52.351Z,98504.52
2023-10-18T07:20:19.169Z,98502.30
2023-10-18T07:22:46.011Z,98504.35
2023-10-18T07:25:13.003Z,98497.86
2023-10-18T07:27:39.941Z,98497.71
2023-10-18T07:30:07.879Z,98496.83
2023-10-18T07:32:34.591Z,98497.86
2023-10-18T07:35:01.928Z,98497.73
2023-10-18T07:37:30.751Z,98495.34
2023-10-18T07:39:57.911Z,98491.17
2023-10-18T07:42:25.461Z,98490.75
2023-10-18T07:44:52.107Z,98489.91
2023-10-18T07:47:18.747Z,98485.48
2023-10-18T07:49:45.544Z,98487.66
2023-10-18T07:52:13.221Z,98484.52
2023-10-18T07:54:40.021Z,98484.43
2023-10-18T07:57:07.223Z,98484.14
2023-10-18T07:59:34.299Z,98480.88
2023-10-18T08:02:03.992Z,98478.35
2023-10-18T08:04:31.357Z,98471.83
2023-10-18T08:06:58.626Z,98466.83
2023-10-18T08:09:25.457Z,98467.23
2023-10-18T08:11:52.261Z,98465.33
2023-10-18T08:14:18.802Z,98463.15
2023-10-18T08:16:45.570Z,98467.10
2023-10-18T08:19:12.285Z,98462.97
2023-10-18T08:21:39.384Z,98467.22
2023-10-18T08:24:06.946Z,98461.90
2023-10-18T08:26:33.613Z,98462.53
2023-10-18T08:29:00.154Z,98460.84
2023-10-18T08:31:27.355Z,98454.17
2023-10-18T08:33:54.487Z,98450.84
2023-10-18T08:36:21.091Z,98446.95
2023-10-18T08:38:47.997Z,98449.26
2023-10-18T08:41:15.881Z,98443.48
2023-10-18T08:44:02.686Z,98436.52
2023-10-18T08:46:29.552Z,98429.47
2023-10-18T08:48:57.013Z,98427.66
2023-10-18T08:51:26.148Z,98425.92
2023-10-18T08:53:55.860Z,98418.23
2023-10-18T08:56:25.326Z,98413.05
2023-10-18T08:58:55.254Z,98411.20
2023-10-18T09:01:22.043Z,98408.44
2023-10-18T09:03:49.067Z,98404.34
2023-10-18T09:06:16.209Z,98402.65
2023-10-18T09:08:43.457Z,98401.75
2023-10-18T09:11:13.927Z,98403.58
2023-10-18T09:13:40.895Z,98405.63
2023-10-18T09:16:07.818Z,98407.30
2023-10-18T09:18:35.003Z,98402.73
2023-10-18T09:21:02.233Z,98401.25
2023-10-18T09:23:29.183Z,98399.70
2023-10-18T09:26:00.239Z,98401.29
2023-10-18T09:28:27.388Z,98401.35
2023-10-18T09:30:54.391Z,98400.54
2023-10-18T09:33:21.917Z,98393.95
2023-10-18T09:35:48.771Z,98391.48
2023-10-18T09:38:15.526Z,98388.64
2023-10-18T09:40:42.359Z,98389.06
2023-10-18T09:43:09.118Z,98380.88
2023-10-18T09:45:35.857Z,98383.21
2023-10-18T09:48:03.210Z,98380.88
2023-10-18T09:50:30.478Z,98375.55
2023-10-18T09:52:58.353Z,98367.61
2023-10-18T09:55:29.550Z,98368.83
2023-10-18T09:57:57.012Z,98366.98
2023-10-18T10:00:24.159Z,98364.61
2023-10-18T10:02:51.205Z,98359.23
2023-10-18T10:05:18.079Z,98355.43
2023-10-18T10:07:47.470Z,98356.61
2023-10-18T10:10:15.652Z,98347.20
2023-10-18T10:12:42.883Z,98343.34
2023-10-18T10:15:10.057Z,98339.33
2023-10-18T10:17:38.205Z,98339.88
2023-10-18T10:20:08.252Z,98344.84
2023-10-18T10:22:36.286Z,98343.33
2023-10-18T10:25:05.148Z,98339.15
2023-10-18T10:27:37.724Z,98333.24
2023-10-18T10:30:06.800Z,98332.10
2023-10-18T10:32:33.604Z,98327.00
2023-10-18T10:35:14.912Z,98323.76
2023-10-18T10:37:48.631Z,98315.54
2023-10-18T10:40:36.566Z,98306.68
2023-10-18T10:43:05.737Z,98305.80
2023-10-18T10:45:42.929Z,98301.92
2023-10-18T10:48:18.599Z,98295.61
2023-10-18T10:51:00.045Z,98293.38
2023-10-18T10:53:35.333Z,98291.77
2023-10-18T10:56:25.930Z,98288.65
2023-10-18T10:59:00.044Z,98286.77
2023-10-18T11:01:42.403Z,98281.65
2023-10-18T11:04:22.352Z,98281.77
2023-10-18T11:06:49.248Z,98282.77
2023-10-18T11:09:16.051Z,98281.73
2023-10-18T11:11:46.214Z,98291.42
2023-10-18T11:14:13.637Z,98286.44
2023-10-18T11:16:40.359Z,98283.67
2023-10-18T11:19:07.991Z,98280.41
2023-10-18T11:21:35.670Z,98280.08
2023-10-18T11:24:02.406Z,98275.71
2023-10-18T11:26:29.507Z,98274.47
2023-10-18T11:28:56.658Z,98270.05
2023-10-18T11:31:25.034Z,98269.29
2023-10-18T11:33:51.881Z,98264.05
2023-10-18T11:36:18.694Z,98260.77
2023-10-18T11:38:47.028Z,98258.56
2023-10-18T11:41:14.028Z,98260.03
2023-10-18T11:43:40.847Z,98261.02
2023-10-18T11:46:08.661Z,98256.63
2023-10-18T11:48:37.145Z,98254.55
2023-10-18T11:51:03.884Z,98245.52
2023-10-18T11:53:30.636Z,98246.23
2023-10-18T11:56:05.213Z,98248.14
2023-10-18T11:58:35.380Z,98240.15
2023-10-18T12:01:17.179Z,98236.92
2023-10-18T12:03:44.544Z,98232.64
2023-10-18T12:06:11.385Z,98228.69
2023-10-18T12:08:45.172Z,98227.25
2023-10-18T12:11:11.866Z,98225.08
2023-10-18T12:13:38.628Z,98221.92
2023-10-18T12:16:05.743Z,98216.17
2023-10-18T12:18:32.429Z,98214.84
2023-10-18T12:20:59.181Z,98208.99
2023-10-18T12:23:25.924Z,98202.65
2023-10-18T12:25:52.571Z,98199.73
2023-10-18T12:28:19.664Z,98195.68
2023-10-18T12:30:48.232Z,98194.49
2023-10-18T12:33:15.135Z,98189.59
2023-10-18T12:35:42.221Z,98186.76
2023-10-18T12:38:09.009Z,98184.48
2023-10-18T12:40:35.947Z,98180.40
2023-10-18T12:43:02.775Z,98174.02
2023-10-18T12:45:29.531Z,98169.11
2023-10-18T12:47:56.627Z,98168.69
2023-10-18T12:50:23.331Z,98160.71
2023-10-18T12:52:50.127Z,98155.91
2023-10-18T12:55:17.201Z,98147.02
2023-10-18T12:57:44.131Z,98141.69
2023-10-18T13:00:11.653Z,98134.80
2023-10-18T13:02:38.405Z,98125.92
2023-10-18T13:05:08.077Z,98121.14
2023-10-18T13:07:36.308Z,98117.45
2023-10-18T13:10:03.049Z,98115.48
2023-10-18T13:12:32.398Z,98109.06
2023-10-18T13:14:59.221Z,98112.09
2023-10-18T13:17:26.189Z,98105.50
2023-10-18T13:19:52.973Z,98106.28
2023-10-18T13:22:19.736Z,98102.70
2023-10-18T13:24:47.161Z,98099.37
2023-10-18T13:27:13.991Z,98098.73
2023-10-18T13:29:40.760Z,98096.55
2023-10-18T13:32:07.438Z,98089.70
2023-10-18T13:34:34.456Z,98090.38
2023-10-18T13:37:01.266Z,98088.73
2023-10-18T13:39:28.249Z,98087.85
2023-10-18T13:41:56.726Z,98085.04
2023-10-18T13:44:24.855Z,98084.62
2023-10-18T13:47:01.865Z,98078.40
2023-10-18T13:49:35.882Z,98074.83
2023-10-18T13:52:02.615Z,98075.78
2023-10-18T13:54:29.574Z,98076.93
2023-10-18T13:56:56.312Z,98077.48
2023-10-18T13:59:23.040Z,98075.40
2023-10-18T14:01:49.869Z,98072.96
2023-10-18T14:04:17.473Z,98071.70
2023-10-18T14:06:54.319Z,98070.52
2023-10-18T14:09:23.126Z,98072.98
2023-10-18T14:11:50.165Z,98068.05
2023-10-18T14:14:16.847Z,98066.12
2023-10-18T14:16:43.736Z,98063.63
2023-10-18T14:19:10.644Z,98063.80
2023-10-18T14:21:37.226Z,98059.25
2023-10-18T14:24:04.446Z,98060.91
2023-10-18T14:26:31.233Z,98056.84
2023-10-18T14:28:57.988Z,98053.05
2023-10-18T14:31:24.943Z,98050.91
2023-10-18T14:34:02.983Z,98045.67
2023-10-18T14:36:30.796Z,98040.08
2023-10-18T14:38:57.640Z,98038.11
2023-10-18T14:41:32.496Z,98038.32
2023-10-18T14:44:01.522Z,98035.82
2023-10-18T14:46:29.034Z,98035.53
2023-10-18T14:48:55.782Z,98031.14
2023-10-18T14:51:22.638Z,98031.52
2023-10-18T14:53:49.814Z,98024.52
2023-10-18T14:56:16.570Z,98020.56
2023-10-18T14:58:47.395Z,98019.72
2023-10-18T15:01:15.122Z,98023.98
2023-10-18T15:03:43.210Z,98028.73
2023-10-18T15:06:10.921Z,98027.73
2023-10-18T15:08:37.770Z,98027.64
2023-10-18T15:11:18.608Z,98024.41
2023-10-18T15:13:46.863Z,98020.65
2023-10-18T15:16:14.946Z,98023.73
2023-10-18T15:18:42.027Z,98027.66
2023-10-18T15:21:09.334Z,98025.11
2023-10-18T15:23:35.989Z,98024.56
2023-10-18T15:26:06.895Z,98024.46
2023-10-18T15:28:34.705Z,98026.66
2023-10-18T15:31:11.727Z,98022.41
2023-10-18T15:33:43.779Z,98025.23
2023-10-18T15:36:24.413Z,98025.36
2023-10-18T15:38:52.738Z,98033.09
2023-10-18T15:41:20.355Z,98033.46
2023-10-18T15:43:48.996Z,98030.73
2023-10-18T15:46:17.476Z,98029.14
2023-10-18T15:48:48.532Z,98035.17
2023-10-18T15:51:16.217Z,98043.19
2023-10-18T15:53:55.613Z,98041.08
2023-10-18T15:56:25.002Z,98043.70
2023-10-18T15:58:52.956Z,98044.44
2023-10-18T16:01:20.000Z,98045.29
2023-10-18T16:03:48.031Z,98041.36
2023-10-18T16:06:16.308Z,98040.67
2023-10-18T16:08:44.940Z,98044.44
2023-10-18T16:11:12.048Z,98044.64
2023-10-18T16:13:38.748Z,98046.84
2023-10-18T16:16:08.013Z,98045.80
2023-10-18T16:18:35.118Z,98048.73
2023-10-18T16:21:02.000Z,98050.79
2023-10-18T16:23:28.674Z,98053.85
2023-10-18T16:25:55.683Z,98056.85
2023-10-18T16:28:22.740Z,98058.15
2023-10-18T16:30:49.421Z,98058.15
2023-10-18T16:33:16.203Z,98059.41
2023-10-18T16:35:43.477Z,98053.70
2023-10-18T16:38:10.371Z,98052.69
2023-10-18T16:40:37.505Z,98053.66
2023-10-18T16:43:04.547Z,98055.92
2023-10-18T16:45:31.315Z,98052.95
2023-10-18T16:47:58.995Z,98053.63
2023-10-18T16:50:25.838Z,98049.02
2023-10-18T16:52:52.579Z,98045.02
2023-10-18T16:55:19.966Z,98038.17
2023-10-18T16:57:46.684Z,98039.77
2023-10-18T17:00:13.884Z,98040.64
2023-10-18T17:02:41.028Z,98035.64
2023-10-18T17:05:08.996Z,98035.48
2023-10-18T17:07:35.708Z,98038.52
2023-10-18T17:10:02.572Z,98036.41
2023-10-18T17:12:29.305Z,98034.71
2023-10-18T17:14:55.951Z,98031.11
2023-10-18T17:17:23.062Z,98030.54
2023-10-18T17:19:49.861Z,98027.23
2023-10-18T17:22:16.505Z,98023.58
2023-10-18T17:24:43.270Z,98023.02
2023-10-18T17:27:10.234Z,98021.02
2023-10-18T17:29:36.896Z,98014.26
2023-10-18T17:32:07.618Z,98014.84
2023-10-18T17:34:34.338Z,98014.20
2023-10-18T17:37:01.027Z,98012.27
2023-10-18T17:39:27.854Z,98009.24
2023-10-18T17:41:54.696Z,98005.66
2023-10-18T17:44:21.594Z,98003.95
2023-10-18T17:46:48.434Z,98002.85
2023-10-18T17:49:15.342Z,98001.73
2023-10-18T17:51:41.991Z,98003.98
2023-10-18T17:54:08.726Z,98005.10
2023-10-18T17:56:36.413Z,98010.77
2023-10-18T17:59:03.365Z,98010.19
2023-10-18T18:01:30.113Z,98010.42
2023-10-18T18:03:56.869Z,98005.94
2023-10-18T18:06:24.117Z,98009.88
2023-10-18T18:08:50.981Z,98009.94
2023-10-18T18:11:30.975Z,98008.38
2023-10-18T18:13:58.703Z,98006.69
2023-10-18T18:16:26.274Z,98011.38
2023-10-18T18:18:53.124Z,98007.23
2023-10-18T18:21:20.001Z,98011.52
2023-10-18T18:23:46.746Z,98011.35
2023-10-18T18:26:13.533Z,98013.02
2023-10-18T18:28:40.359Z,98011.95
2023-10-18T18:31:07.119Z,98010.65
2023-10-18T18:33:34.334Z,98005.70
2023-10-18T18:36:01.103Z,98007.86
2023-10-18T18:38:28.174Z,98006.98
2023-10-18T18:40:54.870Z,98005.71
2023-10-18T18:43:21.730Z,98011.36
2023-10-18T18:45:48.572Z,98006.66
2023-10-18T18:48:15.288Z,98011.74
2023-10-18T18:50:42.247Z,98013.29
2023-10-18T18:53:09.043Z,98013.06
2023-10-18T18:55:35.770Z,98011.83
2023-10-18T18:58:02.526Z,98009.07
2023-10-18T19:00:29.303Z,98012.41
2023-10-18T19:02:57.823Z,98005.20
2023-10-18T19:05:24.981Z,98002.99
2023-10-18T19:07:53.470Z,98004.17
2023-10-18T19:10:20.344Z,98006.41
2023-10-18T19:12:49.443Z,98006.78
2023-10-18T19:15:22.652Z,98006.59
2023-10-18T19:17:51.677Z,98001.22
2023-10-18T19:20:20.073Z,98000.83
2023-10-18T19:22:49.084Z,98000.91
2023-10-18T19:25:16.405Z,97997.76
2023-10-18T19:27:43.964Z,97999.92
2023-10-18T19:30:11.150Z,97998.33
2023-10-18T19:32:38.211Z,97995.10
2023-10-18T19:35:06.476Z,98001.42
2023-10-18T19:37:33.208Z,97998.96
2023-10-18T19:39:59.869Z,97998.15
2023-10-18T19:42:26.503Z,98001.63
2023-10-18T19:44:53.141Z,98000.52
2023-10-18T19:47:19.934Z,98005.90
2023-10-18T19:49:47.036Z,98001.73
2023-10-18T19:52:13.684Z,98000.91
2023-10-18T19:54:40.347Z,97994.81
2023-10-18T19:57:07.184Z,97992.02
2023-10-18T19:59:34.092Z,97992.48
2023-10-18T20:02:01.270Z,97986.48
2023-10-18T20:04:27.939Z,97985.73
2023-10-18T20:06:54.992Z,97984.16
2023-10-18T20:09:21.843Z,97982.69
2023-10-18T20:11:48.493Z,97981.14
2023-10-18T20:14:15.242Z,97983.96
2023-10-18T20:16:42.213Z,97978.33
2023-10-18T20:19:09.039Z,97976.52
2023-10-18T20:21:36.009Z,97975.44
2023-10-18T20:24:03.651Z,97968.14
2023-10-18T20:26:30.437Z,97969.59
2023-10-18T20:28:57.659Z,97967.47
2023-10-18T20:31:25.808Z,97966.55
2023-10-18T20:33:53.428Z,97963.27
2023-10-18T20:36:20.159Z,97963.40
2023-10-18T20:38:46.903Z,97964.39
2023-10-18T20:41:13.558Z,97962.77
2023-10-18T20:43:40.298Z,97966.14
2023-10-18T20:46:08.902Z,97960.02
2023-10-18T20:48:35.562Z,97951.89
2023-10-18T20:51:02.174Z,97953.51
2023-10-18T20:53:28.878Z,97953.94
2023-10-18T20:55:55.559Z,97952.50
2023-10-18T20:58:22.232Z,97947.80
2023-10-18T21:00:49.058Z,97948.38
2023-10-18T21:03:16.006Z,97945.90
2023-10-18T21:05:42.795Z,97942.98
2023-10-18T21:08:09.923Z,97939.73
2023-10-18T21:10:36.596Z,97942.48
2023-10-18T21:13:03.330Z,97937.92
2023-10-18T21:15:32.247Z,97934.73
2023-10-18T21:17:59.707Z,97934.73
2023-10-18T21:20:26.757Z,97931.15
2023-10-18T21:22:54.980Z,97936.33
2023-10-18T21:25:22.754Z,97935.20
2023-10-18T21:27:49.871Z,97932.31
2023-10-18T21:30:18.785Z,97931.29
2023-10-18T21:32:47.454Z,97925.77
2023-10-18T21:35:16.069Z,97918.31
2023-10-18T21:37:44.611Z,97913.20
2023-10-18T21:40:13.421Z,97913.92
2023-10-18T21:42:41.096Z,97912.46
2023-10-18T21:45:12.641Z,97911.42
2023-10-18T21:47:39.533Z,97909.52
2023-10-18T21:50:07.281Z,97910.98
2023-10-18T21:52:35.696Z,97903.23
2023-10-18T21:55:03.343Z,97904.80
2023-10-18T21:57:30.020Z,97903.68
2023-10-18T21:59:57.065Z,97900.68
2023-10-18T22:02:27.709Z,97894.98
2023-10-18T22:04:54.735Z,97894.54
2023-10-18T22:07:21.592Z,97889.36
2023-10-18T22:09:48.327Z,97884.52
2023-10-18T22:12:14.973Z,97879.27
2023-10-18T22:14:41.624Z,97877.65
2023-10-18T22:17:08.307Z,97873.90
2023-10-18T22:19:35.265Z,97874.11
2023-10-18T22:22:02.193Z,97873.43
2023-10-18T22:24:29.502Z,97875.30
2023-10-18T22:26:56.404Z,97869.05
2023-10-18T22:29:23.156Z,97859.42
2023-10-18T22:31:54.586Z,97864.17
2023-10-18T22:34:26.695Z,97867.20
2023-10-18T22:36:53.732Z,97869.48
2023-10-18T22:39:20.480Z,97865.99
2023-10-18T22:41:47.548Z,97863.36
2023-10-18T22:44:17.875Z,97862.20
2023-10-18T22:46:45.295Z,97868.02
2023-10-18T22:49:12.117Z,97862.65
2023-10-18T22:51:39.033Z,97865.61
2023-10-18T22:54:05.783Z,97866.22
2023-10-18T22:56:32.838Z,97865.02
2023-10-18T22:58:59.586Z,97857.02
2023-10-18T23:01:27.354Z,97854.84
2023-10-18T23:03:56.409Z,97849.93
2023-10-18T23:06:23.520Z,97850.14
2023-10-18T23:08:53.246Z,97846.65
2023-10-18T23:11:20.506Z,97842.26
2023-10-18T23:13:47.598Z,97829.50
2023-10-18T23:16:21.602Z,97828.81
2023-10-18T23:18:48.340Z,97822.27
2023-10-18T23:21:15.460Z,97819.01
2023-10-18T23:23:43.685Z,97813.58
2023-10-18T23:26:11.554Z,97802.19
2023-10-18T23:28:38.229Z,97804.06
2023-10-18T23:31:05.309Z,97799.51
2023-10-18T23:33:32.021Z,97794.44
2023-10-18T23:35:59.180Z,97786.39
2023-10-18T23:38:26.130Z,97792.73
2023-10-18T23:40:52.817Z,97790.34
2023-10-18T23:43:23.248Z,97787.27
2023-10-18T23:45:50.941Z,97786.55
2023-10-18T23:48:17.971Z,97781.57
2023-10-18T23:50:44.783Z,97777.65
2023-10-18T23:53:11.883Z,97771.17
2023-10-18T23:55:40.156Z,97761.47
2023-10-18T23:58:11.963Z,97762.22
